Germantown, Maryland
Current Conditions -  °F | °C
As of 7:15 PM on Friday 21 Nov 2014 (Local Time) from KGAI Reporting Station
Clear Clear  
Wind Chill: 25°   Ceiling: Unl
Heat Index: 25°   Visibility: 10mi
Dew Point:   Wind: 0mph
Humidity: 46%   Direction: NA
Pressure: 30.56"   Gusts: NA
Location:  39.18°N, 77.27°W
Report Text: KGAI 220015Z 00000KT 10SM CLR M04/M14 A3056 RMK AO1
Loading
Personal Weather Stations






























Interactive Weather Map New forecast layout! Learn more

10-Day Weather Forecast

Advertisements
Track Severe Weather on mobile